sensor_id;sensor_type;location;lat;lon;timestamp;P1;durP1;ratioP1;P2;durP2;ratioP2
20597;SDS011;10457;48.770;11.446;2022-11-25T00:03:57;24.20;;;16.43;;
20597;SDS011;10457;48.770;11.446;2022-11-25T00:09:19;24.93;;;16.80;;
20597;SDS011;10457;48.770;11.446;2022-11-25T00:14:42;22.00;;;14.70;;
20597;SDS011;10457;48.770;11.446;2022-11-25T00:20:04;26.93;;;15.30;;
20597;SDS011;10457;48.770;11.446;2022-11-25T00:25:27;22.50;;;15.90;;
20597;SDS011;10457;48.770;11.446;2022-11-25T00:30:51;32.20;;;15.70;;
20597;SDS011;10457;48.770;11.446;2022-11-25T00:36:14;33.37;;;16.93;;
20597;SDS011;10457;48.770;11.446;2022-11-25T00:41:36;31.13;;;16.70;;
20597;SDS011;10457;48.770;11.446;2022-11-25T00:47:18;25.83;;;15.27;;
20597;SDS011;10457;48.770;11.446;2022-11-25T00:52:45;38.20;;;17.00;;
20597;SDS011;10457;48.770;11.446;2022-11-25T00:58:10;45.60;;;16.97;;
20597;SDS011;10457;48.770;11.446;2022-11-25T01:03:32;53.73;;;17.13;;
20597;SDS011;10457;48.770;11.446;2022-11-25T01:08:55;51.43;;;13.53;;
20597;SDS011;10457;48.770;11.446;2022-11-25T01:14:17;26.07;;;11.10;;
20597;SDS011;10457;48.770;11.446;2022-11-25T01:19:41;40.20;;;12.57;;
20597;SDS011;10457;48.770;11.446;2022-11-25T01:25:02;35.93;;;12.70;;
20597;SDS011;10457;48.770;11.446;2022-11-25T01:30:25;27.53;;;10.43;;
20597;SDS011;10457;48.770;11.446;2022-11-25T01:35:47;27.37;;;11.17;;
20597;SDS011;10457;48.770;11.446;2022-11-25T01:41:11;22.00;;;11.00;;
20597;SDS011;10457;48.770;11.446;2022-11-25T01:46:37;26.77;;;10.53;;
20597;SDS011;10457;48.770;11.446;2022-11-25T01:52:24;58.80;;;11.47;;
20597;SDS011;10457;48.770;11.446;2022-11-25T01:57:51;78.70;;;12.23;;
20597;SDS011;10457;48.770;11.446;2022-11-25T02:03:18;30.83;;;10.97;;
20597;SDS011;10457;48.770;11.446;2022-11-25T02:08:47;53.03;;;11.70;;
20597;SDS011;10457;48.770;11.446;2022-11-25T02:14:12;39.77;;;10.53;;
20597;SDS011;10457;48.770;11.446;2022-11-25T02:19:42;27.70;;;10.60;;
20597;SDS011;10457;48.770;11.446;2022-11-25T02:25:18;35.40;;;10.43;;
20597;SDS011;10457;48.770;11.446;2022-11-25T02:30:42;62.67;;;10.83;;
20597;SDS011;10457;48.770;11.446;2022-11-25T02:36:05;51.37;;;11.33;;
20597;SDS011;10457;48.770;11.446;2022-11-25T02:41:34;39.70;;;10.13;;
20597;SDS011;10457;48.770;11.446;2022-11-25T02:47:02;32.67;;;9.60;;
20597;SDS011;10457;48.770;11.446;2022-11-25T02:52:23;33.00;;;9.53;;
20597;SDS011;10457;48.770;11.446;2022-11-25T02:57:46;14.17;;;9.20;;
20597;SDS011;10457;48.770;11.446;2022-11-25T03:03:11;27.63;;;9.17;;
20597;SDS011;10457;48.770;11.446;2022-11-25T03:08:33;12.40;;;8.13;;
20597;SDS011;10457;48.770;11.446;2022-11-25T03:14:01;15.70;;;8.53;;
20597;SDS011;10457;48.770;11.446;2022-11-25T03:19:22;18.20;;;9.77;;
20597;SDS011;10457;48.770;11.446;2022-11-25T03:24:48;20.77;;;9.33;;
20597;SDS011;10457;48.770;11.446;2022-11-25T03:30:11;32.40;;;9.30;;
20597;SDS011;10457;48.770;11.446;2022-11-25T03:35:37;26.83;;;9.30;;
20597;SDS011;10457;48.770;11.446;2022-11-25T03:40:58;27.63;;;8.70;;
20597;SDS011;10457;48.770;11.446;2022-11-25T03:46:22;20.53;;;8.83;;
20597;SDS011;10457;48.770;11.446;2022-11-25T03:51:46;30.67;;;8.83;;
20597;SDS011;10457;48.770;11.446;2022-11-25T03:57:10;22.17;;;7.33;;
20597;SDS011;10457;48.770;11.446;2022-11-25T04:02:33;16.13;;;6.67;;
20597;SDS011;10457;48.770;11.446;2022-11-25T04:07:55;16.30;;;7.67;;
20597;SDS011;10457;48.770;11.446;2022-11-25T04:13:17;13.87;;;6.63;;
20597;SDS011;10457;48.770;11.446;2022-11-25T04:18:40;24.20;;;8.23;;
20597;SDS011;10457;48.770;11.446;2022-11-25T04:24:02;34.47;;;8.57;;
20597;SDS011;10457;48.770;11.446;2022-11-25T04:29:26;33.50;;;8.37;;
20597;SDS011;10457;48.770;11.446;2022-11-25T04:34:50;18.20;;;8.83;;
20597;SDS011;10457;48.770;11.446;2022-11-25T04:40:12;24.27;;;8.13;;
20597;SDS011;10457;48.770;11.446;2022-11-25T04:45:38;25.17;;;8.47;;
20597;SDS011;10457;48.770;11.446;2022-11-25T04:51:02;13.07;;;6.70;;
20597;SDS011;10457;48.770;11.446;2022-11-25T04:56:24;13.23;;;7.10;;
20597;SDS011;10457;48.770;11.446;2022-11-25T05:01:47;12.63;;;7.43;;
20597;SDS011;10457;48.770;11.446;2022-11-25T05:07:31;71.57;;;10.57;;
20597;SDS011;10457;48.770;11.446;2022-11-25T05:12:53;96.03;;;13.03;;
20597;SDS011;10457;48.770;11.446;2022-11-25T05:18:15;85.40;;;12.87;;
20597;SDS011;10457;48.770;11.446;2022-11-25T05:23:40;72.93;;;12.10;;
20597;SDS011;10457;48.770;11.446;2022-11-25T05:29:01;35.43;;;9.67;;
20597;SDS011;10457;48.770;11.446;2022-11-25T05:34:25;46.03;;;9.60;;
20597;SDS011;10457;48.770;11.446;2022-11-25T05:39:50;33.33;;;8.70;;
20597;SDS011;10457;48.770;11.446;2022-11-25T05:45:31;56.43;;;10.10;;
20597;SDS011;10457;48.770;11.446;2022-11-25T05:50:53;33.03;;;8.60;;
20597;SDS011;10457;48.770;11.446;2022-11-25T05:56:18;38.03;;;9.77;;
20597;SDS011;10457;48.770;11.446;2022-11-25T06:02:02;20.77;;;8.67;;
20597;SDS011;10457;48.770;11.446;2022-11-25T06:07:24;34.33;;;10.63;;
20597;SDS011;10457;48.770;11.446;2022-11-25T06:12:48;28.67;;;10.10;;
20597;SDS011;10457;48.770;11.446;2022-11-25T06:18:12;28.43;;;9.67;;
20597;SDS011;10457;48.770;11.446;2022-11-25T06:29:26;30.03;;;8.33;;
20597;SDS011;10457;48.770;11.446;2022-11-25T06:34:48;30.53;;;9.10;;
20597;SDS011;10457;48.770;11.446;2022-11-25T06:40:39;15.67;;;7.73;;
20597;SDS011;10457;48.770;11.446;2022-11-25T06:46:04;21.47;;;8.00;;
20597;SDS011;10457;48.770;11.446;2022-11-25T06:51:27;14.07;;;7.23;;
20597;SDS011;10457;48.770;11.446;2022-11-25T06:56:49;12.27;;;7.10;;
20597;SDS011;10457;48.770;11.446;2022-11-25T07:02:13;13.73;;;8.07;;
20597;SDS011;10457;48.770;11.446;2022-11-25T07:07:35;9.83;;;6.67;;
20597;SDS011;10457;48.770;11.446;2022-11-25T07:12:56;17.83;;;10.07;;
20597;SDS011;10457;48.770;11.446;2022-11-25T07:18:19;14.07;;;9.50;;
20597;SDS011;10457;48.770;11.446;2022-11-25T07:23:41;15.43;;;10.30;;
20597;SDS011;10457;48.770;11.446;2022-11-25T07:29:07;21.77;;;13.40;;
20597;SDS011;10457;48.770;11.446;2022-11-25T07:34:32;18.37;;;11.90;;
20597;SDS011;10457;48.770;11.446;2022-11-25T07:39:57;12.87;;;8.27;;
20597;SDS011;10457;48.770;11.446;2022-11-25T07:45:19;16.13;;;9.93;;
20597;SDS011;10457;48.770;11.446;2022-11-25T07:50:47;23.87;;;11.67;;
20597;SDS011;10457;48.770;11.446;2022-11-25T07:56:09;20.03;;;11.97;;
20597;SDS011;10457;48.770;11.446;2022-11-25T08:01:31;17.93;;;10.73;;
20597;SDS011;10457;48.770;11.446;2022-11-25T08:06:54;17.77;;;8.87;;
20597;SDS011;10457;48.770;11.446;2022-11-25T08:12:16;14.00;;;9.30;;
20597;SDS011;10457;48.770;11.446;2022-11-25T08:17:40;16.90;;;9.37;;
20597;SDS011;10457;48.770;11.446;2022-11-25T08:23:03;18.73;;;9.67;;
20597;SDS011;10457;48.770;11.446;2022-11-25T08:28:24;18.60;;;11.43;;
20597;SDS011;10457;48.770;11.446;2022-11-25T08:33:46;16.47;;;11.47;;
20597;SDS011;10457;48.770;11.446;2022-11-25T08:39:10;32.63;;;15.43;;
20597;SDS011;10457;48.770;11.446;2022-11-25T08:44:31;26.63;;;14.90;;
20597;SDS011;10457;48.770;11.446;2022-11-25T08:49:54;18.63;;;10.67;;
20597;SDS011;10457;48.770;11.446;2022-11-25T08:55:17;22.10;;;12.10;;
20597;SDS011;10457;48.770;11.446;2022-11-25T09:00:40;21.07;;;11.93;;
20597;SDS011;10457;48.770;11.446;2022-11-25T09:06:04;24.93;;;12.13;;
20597;SDS011;10457;48.770;11.446;2022-11-25T09:11:28;23.63;;;12.23;;
20597;SDS011;10457;48.770;11.446;2022-11-25T09:16:51;21.50;;;12.30;;
20597;SDS011;10457;48.770;11.446;2022-11-25T09:22:15;15.20;;;10.37;;
20597;SDS011;10457;48.770;11.446;2022-11-25T09:27:38;14.37;;;9.47;;
20597;SDS011;10457;48.770;11.446;2022-11-25T09:33:05;13.93;;;9.20;;
20597;SDS011;10457;48.770;11.446;2022-11-25T09:38:26;9.77;;;8.10;;
20597;SDS011;10457;48.770;11.446;2022-11-25T09:43:54;12.33;;;8.53;;
20597;SDS011;10457;48.770;11.446;2022-11-25T09:49:48;8.73;;;6.90;;
20597;SDS011;10457;48.770;11.446;2022-11-25T09:55:25;14.57;;;8.63;;
20597;SDS011;10457;48.770;11.446;2022-11-25T10:00:55;8.97;;;6.97;;
20597;SDS011;10457;48.770;11.446;2022-11-25T10:06:21;9.80;;;6.67;;
20597;SDS011;10457;48.770;11.446;2022-11-25T10:11:49;10.77;;;7.73;;
20597;SDS011;10457;48.770;11.446;2022-11-25T10:17:16;8.17;;;6.27;;
20597;SDS011;10457;48.770;11.446;2022-11-25T10:22:49;10.50;;;8.00;;
20597;SDS011;10457;48.770;11.446;2022-11-25T10:34:10;11.33;;;7.37;;
20597;SDS011;10457;48.770;11.446;2022-11-25T10:39:41;10.10;;;7.00;;
20597;SDS011;10457;48.770;11.446;2022-11-25T10:45:03;10.23;;;8.00;;
20597;SDS011;10457;48.770;11.446;2022-11-25T10:50:31;15.73;;;9.33;;
20597;SDS011;10457;48.770;11.446;2022-11-25T10:56:02;14.77;;;8.87;;
20597;SDS011;10457;48.770;11.446;2022-11-25T11:01:33;11.30;;;7.73;;
20597;SDS011;10457;48.770;11.446;2022-11-25T11:06:55;9.37;;;6.37;;
20597;SDS011;10457;48.770;11.446;2022-11-25T11:12:28;9.80;;;6.23;;
20597;SDS011;10457;48.770;11.446;2022-11-25T11:17:57;14.13;;;6.97;;
20597;SDS011;10457;48.770;11.446;2022-11-25T11:23:46;6.83;;;6.10;;
20597;SDS011;10457;48.770;11.446;2022-11-25T11:29:12;11.60;;;5.90;;
20597;SDS011;10457;48.770;11.446;2022-11-25T11:34:44;8.57;;;5.80;;
20597;SDS011;10457;48.770;11.446;2022-11-25T11:40:26;8.52;;;5.82;;
20597;SDS011;10457;48.770;11.446;2022-11-25T11:46:16;7.63;;;6.18;;
20597;SDS011;10457;48.770;11.446;2022-11-25T11:52:13;5.90;;;5.05;;
20597;SDS011;10457;48.770;11.446;2022-11-25T11:58:38;9.57;;;5.55;;
20597;SDS011;10457;48.770;11.446;2022-11-25T12:04:21;6.90;;;5.85;;
20597;SDS011;10457;48.770;11.446;2022-11-25T12:09:49;6.32;;;5.18;;
20597;SDS011;10457;48.770;11.446;2022-11-25T12:15:18;6.82;;;4.80;;
20597;SDS011;10457;48.770;11.446;2022-11-25T12:20:51;9.18;;;6.72;;
20597;SDS011;10457;48.770;11.446;2022-11-25T12:26:43;10.50;;;9.38;;
20597;SDS011;10457;48.770;11.446;2022-11-25T12:32:20;5.78;;;5.18;;
20597;SDS011;10457;48.770;11.446;2022-11-25T12:38:11;9.15;;;6.25;;
20597;SDS011;10457;48.770;11.446;2022-11-25T12:43:48;7.97;;;5.20;;
20597;SDS011;10457;48.770;11.446;2022-11-25T12:49:18;7.27;;;5.50;;
20597;SDS011;10457;48.770;11.446;2022-11-25T12:54:49;7.60;;;5.73;;
20597;SDS011;10457;48.770;11.446;2022-11-25T13:00:32;8.57;;;4.90;;
20597;SDS011;10457;48.770;11.446;2022-11-25T13:12:25;7.27;;;5.30;;
20597;SDS011;10457;48.770;11.446;2022-11-25T13:17:59;10.00;;;6.07;;
20597;SDS011;10457;48.770;11.446;2022-11-25T13:23:49;11.70;;;5.60;;
20597;SDS011;10457;48.770;11.446;2022-11-25T13:35:30;10.43;;;5.93;;
20597;SDS011;10457;48.770;11.446;2022-11-25T13:40:57;9.90;;;6.40;;
20597;SDS011;10457;48.770;11.446;2022-11-25T13:46:26;8.40;;;5.73;;
20597;SDS011;10457;48.770;11.446;2022-11-25T13:51:52;11.00;;;7.23;;
20597;SDS011;10457;48.770;11.446;2022-11-25T13:57:24;8.73;;;5.97;;
20597;SDS011;10457;48.770;11.446;2022-11-25T14:02:49;11.73;;;8.03;;
20597;SDS011;10457;48.770;11.446;2022-11-25T14:08:14;8.33;;;6.93;;
20597;SDS011;10457;48.770;11.446;2022-11-25T14:13:50;15.70;;;8.53;;
20597;SDS011;10457;48.770;11.446;2022-11-25T14:19:31;10.93;;;6.17;;
20597;SDS011;10457;48.770;11.446;2022-11-25T14:25:20;15.10;;;8.57;;
20597;SDS011;10457;48.770;11.446;2022-11-25T14:30:52;10.83;;;7.93;;
20597;SDS011;10457;48.770;11.446;2022-11-25T14:36:23;10.23;;;7.17;;
20597;SDS011;10457;48.770;11.446;2022-11-25T14:41:53;12.17;;;8.80;;
20597;SDS011;10457;48.770;11.446;2022-11-25T14:47:24;11.93;;;8.47;;
20597;SDS011;10457;48.770;11.446;2022-11-25T14:52:48;10.20;;;6.73;;
20597;SDS011;10457;48.770;11.446;2022-11-25T14:58:10;9.47;;;6.47;;
20597;SDS011;10457;48.770;11.446;2022-11-25T15:03:33;11.33;;;7.07;;
20597;SDS011;10457;48.770;11.446;2022-11-25T15:08:59;10.63;;;7.23;;
20597;SDS011;10457;48.770;11.446;2022-11-25T15:14:23;14.53;;;7.87;;
20597;SDS011;10457;48.770;11.446;2022-11-25T15:19:48;12.00;;;8.13;;
20597;SDS011;10457;48.770;11.446;2022-11-25T15:25:12;10.17;;;7.87;;
20597;SDS011;10457;48.770;11.446;2022-11-25T15:30:37;21.70;;;11.43;;
20597;SDS011;10457;48.770;11.446;2022-11-25T15:36:00;13.23;;;9.60;;
20597;SDS011;10457;48.770;11.446;2022-11-25T15:41:26;12.93;;;9.37;;
20597;SDS011;10457;48.770;11.446;2022-11-25T15:46:57;15.13;;;10.20;;
20597;SDS011;10457;48.770;11.446;2022-11-25T15:52:24;13.87;;;9.00;;
20597;SDS011;10457;48.770;11.446;2022-11-25T15:57:49;13.87;;;10.13;;
20597;SDS011;10457;48.770;11.446;2022-11-25T16:03:17;16.00;;;10.10;;
20597;SDS011;10457;48.770;11.446;2022-11-25T16:08:50;15.03;;;10.10;;
20597;SDS011;10457;48.770;11.446;2022-11-25T16:14:16;16.50;;;9.87;;
20597;SDS011;10457;48.770;11.446;2022-11-25T16:19:44;15.03;;;9.37;;
20597;SDS011;10457;48.770;11.446;2022-11-25T16:25:09;15.97;;;10.27;;
20597;SDS011;10457;48.770;11.446;2022-11-25T16:30:35;16.17;;;10.33;;
20597;SDS011;10457;48.770;11.446;2022-11-25T16:36:46;18.47;;;10.97;;
20597;SDS011;10457;48.770;11.446;2022-11-25T16:42:13;16.03;;;11.33;;
20597;SDS011;10457;48.770;11.446;2022-11-25T16:47:38;23.57;;;12.67;;
20597;SDS011;10457;48.770;11.446;2022-11-25T16:53:00;16.33;;;12.23;;
20597;SDS011;10457;48.770;11.446;2022-11-25T16:58:23;16.67;;;11.60;;
20597;SDS011;10457;48.770;11.446;2022-11-25T17:03:45;19.43;;;12.07;;
20597;SDS011;10457;48.770;11.446;2022-11-25T17:09:06;16.67;;;12.30;;
20597;SDS011;10457;48.770;11.446;2022-11-25T17:14:31;16.23;;;12.67;;
20597;SDS011;10457;48.770;11.446;2022-11-25T17:19:54;19.63;;;12.53;;
20597;SDS011;10457;48.770;11.446;2022-11-25T17:25:16;17.77;;;11.97;;
20597;SDS011;10457;48.770;11.446;2022-11-25T17:30:41;18.57;;;13.97;;
20597;SDS011;10457;48.770;11.446;2022-11-25T17:36:04;19.90;;;14.60;;
20597;SDS011;10457;48.770;11.446;2022-11-25T17:41:28;19.93;;;13.67;;
20597;SDS011;10457;48.770;11.446;2022-11-25T17:46:50;19.73;;;13.37;;
20597;SDS011;10457;48.770;11.446;2022-11-25T17:52:13;20.17;;;13.97;;
20597;SDS011;10457;48.770;11.446;2022-11-25T17:57:36;18.73;;;13.43;;
20597;SDS011;10457;48.770;11.446;2022-11-25T18:02:59;34.30;;;20.13;;
20597;SDS011;10457;48.770;11.446;2022-11-25T18:08:21;34.03;;;21.43;;
20597;SDS011;10457;48.770;11.446;2022-11-25T18:13:42;42.63;;;23.67;;
20597;SDS011;10457;48.770;11.446;2022-11-25T18:19:09;32.10;;;19.90;;
20597;SDS011;10457;48.770;11.446;2022-11-25T18:24:38;32.30;;;17.67;;
20597;SDS011;10457;48.770;11.446;2022-11-25T18:30:00;27.50;;;19.03;;
20597;SDS011;10457;48.770;11.446;2022-11-25T18:35:27;22.83;;;15.97;;
20597;SDS011;10457;48.770;11.446;2022-11-25T18:40:54;23.57;;;15.87;;
20597;SDS011;10457;48.770;11.446;2022-11-25T18:46:16;27.33;;;17.20;;
20597;SDS011;10457;48.770;11.446;2022-11-25T18:51:39;28.77;;;17.87;;
20597;SDS011;10457;48.770;11.446;2022-11-25T18:57:01;30.97;;;18.67;;
20597;SDS011;10457;48.770;11.446;2022-11-25T19:02:23;29.37;;;18.17;;
20597;SDS011;10457;48.770;11.446;2022-11-25T19:07:46;27.10;;;16.17;;
20597;SDS011;10457;48.770;11.446;2022-11-25T19:13:14;22.33;;;15.63;;
20597;SDS011;10457;48.770;11.446;2022-11-25T19:18:39;23.80;;;14.77;;
20597;SDS011;10457;48.770;11.446;2022-11-25T19:24:08;25.37;;;14.93;;
20597;SDS011;10457;48.770;11.446;2022-11-25T19:29:33;24.07;;;15.37;;
20597;SDS011;10457;48.770;11.446;2022-11-25T19:34:59;35.67;;;23.17;;
20597;SDS011;10457;48.770;11.446;2022-11-25T19:40:25;26.27;;;17.57;;
20597;SDS011;10457;48.770;11.446;2022-11-25T19:45:48;27.13;;;15.93;;
20597;SDS011;10457;48.770;11.446;2022-11-25T19:51:10;19.30;;;13.93;;
20597;SDS011;10457;48.770;11.446;2022-11-25T19:56:33;24.37;;;14.23;;
20597;SDS011;10457;48.770;11.446;2022-11-25T20:01:55;34.30;;;26.87;;
20597;SDS011;10457;48.770;11.446;2022-11-25T20:07:17;25.97;;;18.10;;
20597;SDS011;10457;48.770;11.446;2022-11-25T20:12:41;32.33;;;18.67;;
20597;SDS011;10457;48.770;11.446;2022-11-25T20:18:03;23.70;;;16.93;;
20597;SDS011;10457;48.770;11.446;2022-11-25T20:23:26;23.60;;;15.23;;
20597;SDS011;10457;48.770;11.446;2022-11-25T20:28:53;23.83;;;14.93;;
20597;SDS011;10457;48.770;11.446;2022-11-25T20:34:16;25.33;;;15.20;;
20597;SDS011;10457;48.770;11.446;2022-11-25T20:39:38;67.77;;;34.93;;
20597;SDS011;10457;48.770;11.446;2022-11-25T20:45:02;35.77;;;27.50;;
20597;SDS011;10457;48.770;11.446;2022-11-25T20:50:26;31.20;;;25.90;;
20597;SDS011;10457;48.770;11.446;2022-11-25T20:55:49;31.50;;;20.63;;
20597;SDS011;10457;48.770;11.446;2022-11-25T21:01:12;29.60;;;18.63;;
20597;SDS011;10457;48.770;11.446;2022-11-25T21:06:35;29.13;;;18.27;;
20597;SDS011;10457;48.770;11.446;2022-11-25T21:11:58;48.73;;;28.30;;
20597;SDS011;10457;48.770;11.446;2022-11-25T21:17:22;47.03;;;28.43;;
20597;SDS011;10457;48.770;11.446;2022-11-25T21:22:44;33.67;;;18.67;;
20597;SDS011;10457;48.770;11.446;2022-11-25T21:28:11;27.93;;;19.13;;
20597;SDS011;10457;48.770;11.446;2022-11-25T21:33:38;27.37;;;18.40;;
20597;SDS011;10457;48.770;11.446;2022-11-25T21:39:00;27.87;;;16.43;;
20597;SDS011;10457;48.770;11.446;2022-11-25T21:44:27;27.00;;;16.83;;
20597;SDS011;10457;48.770;11.446;2022-11-25T21:49:52;26.50;;;16.97;;
20597;SDS011;10457;48.770;11.446;2022-11-25T21:55:15;30.07;;;16.63;;
20597;SDS011;10457;48.770;11.446;2022-11-25T22:00:36;21.40;;;14.10;;
20597;SDS011;10457;48.770;11.446;2022-11-25T22:05:59;22.70;;;16.50;;
20597;SDS011;10457;48.770;11.446;2022-11-25T22:11:23;29.17;;;17.87;;
20597;SDS011;10457;48.770;11.446;2022-11-25T22:16:53;22.23;;;16.00;;
20597;SDS011;10457;48.770;11.446;2022-11-25T22:22:17;16.50;;;13.43;;
20597;SDS011;10457;48.770;11.446;2022-11-25T22:27:39;26.63;;;13.63;;
20597;SDS011;10457;48.770;11.446;2022-11-25T22:33:01;21.53;;;13.30;;
20597;SDS011;10457;48.770;11.446;2022-11-25T22:38:25;26.93;;;14.90;;
20597;SDS011;10457;48.770;11.446;2022-11-25T22:43:50;20.37;;;13.83;;
20597;SDS011;10457;48.770;11.446;2022-11-25T22:49:18;24.87;;;13.30;;
20597;SDS011;10457;48.770;11.446;2022-11-25T22:54:51;22.63;;;12.73;;
20597;SDS011;10457;48.770;11.446;2022-11-25T23:00:19;18.40;;;12.70;;
20597;SDS011;10457;48.770;11.446;2022-11-25T23:05:42;16.87;;;11.50;;
20597;SDS011;10457;48.770;11.446;2022-11-25T23:11:08;20.23;;;12.97;;
20597;SDS011;10457;48.770;11.446;2022-11-25T23:16:35;17.83;;;13.50;;
20597;SDS011;10457;48.770;11.446;2022-11-25T23:21:57;21.60;;;12.83;;
20597;SDS011;10457;48.770;11.446;2022-11-25T23:27:20;18.20;;;12.53;;
20597;SDS011;10457;48.770;11.446;2022-11-25T23:32:42;18.87;;;13.33;;
20597;SDS011;10457;48.770;11.446;2022-11-25T23:38:04;21.07;;;13.23;;
20597;SDS011;10457;48.770;11.446;2022-11-25T23:43:29;21.20;;;12.87;;
20597;SDS011;10457;48.770;11.446;2022-11-25T23:48:52;19.23;;;12.57;;
20597;SDS011;10457;48.770;11.446;2022-11-25T23:54:16;21.27;;;13.13;;
20597;SDS011;10457;48.770;11.446;2022-11-25T23:59:44;20.40;;;12.57;;
